KCRQ

Mc Clellan-Palomar Airport

Carlsbad, California, USA
METAR KCRQ 101553Z 00000KT 10SM CLR 13/07 A3009 RMK AO2 SLP187 T01280072
Observed Flight Rules
Dec-10 @ 15:53 UTC (24 minutes ago) Visual Flight Rules
Visibility Clouds
10 miles
  • Clear skies
Temperatures Readings
Current 13°C / 55°F
Dewpoint 7°C / 45°F
Humidity 67%
Altimeter 30.09" Hg
Pressure 1018.7 hPa
Elevation 99
METAR KCRQ 101553Z 00000KT 10SM CLR 13/07 A3009 RMK AO2 SLP187 T01280072
Observed Flight Rules
Dec-10 @ 15:53 UTC
(24 minutes ago)
VFR
Clouds
  • Clear skies
Temperature Dewpoint
13°C / 55°F 7°C / 45°F
Humidity Altimeter Pressure
67% 30.09" Hg 1018.7 hPa